Venus Seven — H9RN — position and weather

sailwx.info

Track history (hours):
 
Tides and Currents Weather Stations Pressure Air Temp Water Temp Dewpoint Dewpoint Depression Visibility Wind Speed Wind Dir Waves Ship Positions

Venus Seven

Last reported at 2016-Apr-28 08:33 UTC. Time now 2016-Apr-30 20:44 UTC.
Position N 22°38' E 120°14'.

Length 93 m; draft 4.3 m.

Type: Cargo ship. MMSI: 353405000.

Date/timePositionNaut miles runAvg speedWind from/ knotsBaromVisibWave heightAir tempDewpointWater temp
2016-Apr-28 08:33N 22°38' E 120°14'4 0.1
2016-Apr-27 04:30N 22°37' E 120°18'9 9.1
2016-Apr-27 03:33N 22°41' E 120°10'  
2016-Apr-22 12:33N 33°57' E 134°55'1110.9
2016-Apr-22 11:33N 34°07' E 134°57'1110.5
2016-Apr-22 10:33N 34°18' E 134°59'1310.8
2016-Apr-22 09:20N 34°28' E 135°09'911.8
2016-Apr-22 08:33N 34°34' E 135°17'8 7.7
2016-Apr-22 07:33N 34°38' E 135°25'0 0.0
2016-Apr-22 06:33N 34°38' E 135°25'0 0.0
2016-Apr-22 05:26N 34°38' E 135°25'0 0.0
2016-Apr-22 04:32N 34°38' E 135°25'0 0.0
2016-Apr-22 03:32N 34°38' E 135°25'0 0.0
2016-Apr-22 02:32N 34°38' E 135°25'0 0.0
2016-Apr-22 01:32N 34°38' E 135°25'0 0.0
2016-Apr-22 00:32N 34°38' E 135°25'0 0.0
2016-Apr-21 23:32N 34°38' E 135°25'0 0.0
2016-Apr-21 22:14N 34°38' E 135°25'0 0.0
2016-Apr-21 21:26N 34°38' E 135°25'0 0.0
2016-Apr-21 20:32N 34°38' E 135°25'0 0.0
2016-Apr-21 19:26N 34°38' E 135°25'0 0.0
2016-Apr-21 18:32N 34°38' E 135°25'0 0.0
2016-Apr-21 17:32N 34°38' E 135°25'0 0.0
2016-Apr-21 16:32N 34°38' E 135°25'0 0.0
2016-Apr-21 15:32N 34°38' E 135°25'0 0.0
2016-Apr-21 14:26N 34°38' E 135°25'0 0.0
2016-Apr-21 13:26N 34°38' E 135°25'0 0.0
2016-Apr-21 12:32N 34°38' E 135°25'0 0.0
2016-Apr-21 11:32N 34°38' E 135°25'0 0.0
2016-Apr-21 10:32N 34°38' E 135°25'0 0.0
2016-Apr-21 09:32N 34°38' E 135°25'0 0.0
2016-Apr-21 08:32N 34°38' E 135°25'0 0.0
2016-Apr-21 07:32N 34°38' E 135°25'0 0.0
2016-Apr-21 06:32N 34°38' E 135°25'0 0.0
2016-Apr-21 05:32N 34°38' E 135°25'0 0.0
2016-Apr-21 04:32N 34°38' E 135°25'0 0.0
2016-Apr-21 03:32N 34°38' E 135°25'0 0.0
2016-Apr-21 02:26N 34°38' E 135°25'0 0.0
2016-Apr-21 01:26N 34°38' E 135°25'0 0.0
2016-Apr-21 00:32N 34°38' E 135°25'0 0.0
2016-Apr-20 23:26N 34°38' E 135°25'0 0.0
2016-Apr-20 22:31N 34°38' E 135°25'0 0.0
2016-Apr-20 21:31N 34°38' E 135°25'0 0.0
2016-Apr-20 20:19N 34°38' E 135°25'0 0.0
2016-Apr-20 19:25N 34°38' E 135°25'0 0.0
2016-Apr-20 18:31N 34°38' E 135°25'0 0.0
2016-Apr-20 17:31N 34°38' E 135°25'0 0.0
2016-Apr-20 16:31N 34°38' E 135°25'0 0.0
2016-Apr-20 15:31N 34°38' E 135°25'0 0.0
2016-Apr-20 14:19N 34°38' E 135°25'0 0.0
2016-Apr-20 13:31N 34°38' E 135°25'0 0.0
2016-Apr-20 12:31N 34°38' E 135°25'0 0.0
2016-Apr-20 11:31N 34°38' E 135°25'0 0.0
2016-Apr-20 10:31N 34°38' E 135°25'0 0.0
2016-Apr-20 09:31N 34°38' E 135°25'0 0.0
2016-Apr-20 08:31N 34°38' E 135°25'0 0.0
2016-Apr-20 07:31N 34°38' E 135°25'0 0.0
2016-Apr-20 06:25N 34°38' E 135°25'0 0.0
2016-Apr-20 05:19N 34°38' E 135°25'0 0.0
2016-Apr-20 04:25N 34°38' E 135°25'0 0.0
2016-Apr-20 03:31N 34°38' E 135°25'0 0.0
2016-Apr-20 02:31N 34°38' E 135°25'0 0.0
2016-Apr-20 01:19N 34°38' E 135°25'0 0.0
2016-Apr-20 00:31N 34°38' E 135°25'0 0.0
2016-Apr-19 23:31N 34°38' E 135°25'0 0.0
2016-Apr-19 22:31N 34°38' E 135°25'2 1.8
2016-Apr-19 21:33N 34°37' E 135°23'0 0.1
2016-Apr-19 18:32N 34°37' E 135°23'8 8.4
2016-Apr-19 17:33N 34°35' E 135°14'1312.7
2016-Apr-19 16:33N 34°37' E 134°58'  
Track history (hours):
 
Tides and Currents Weather Stations Pressure Air Temp Water Temp Dewpoint Dewpoint Depression Visibility Wind Speed Wind Dir Waves Ship Positions

Venus Seven

Last reported at 2016-Apr-28 08:33 UTC. Time now 2016-Apr-30 20:44 UTC.
Position N 22°38' E 120°14'.

Length 93 m; draft 4.3 m.

Type: Cargo ship. MMSI: 353405000.

Date/timePositionNaut miles runAvg speedWind from/ knotsBaromVisibWave heightAir tempDewpointWater temp
2016-Apr-28 08:33N 22°38' E 120°14'4 0.1
2016-Apr-27 04:30N 22°37' E 120°18'9 9.1
2016-Apr-27 03:33N 22°41' E 120°10'  
2016-Apr-22 12:33N 33°57' E 134°55'1110.9
2016-Apr-22 11:33N 34°07' E 134°57'1110.5
2016-Apr-22 10:33N 34°18' E 134°59'1310.8
2016-Apr-22 09:20N 34°28' E 135°09'911.8
2016-Apr-22 08:33N 34°34' E 135°17'8 7.7
2016-Apr-22 07:33N 34°38' E 135°25'0 0.0
2016-Apr-22 06:33N 34°38' E 135°25'0 0.0
2016-Apr-22 05:26N 34°38' E 135°25'0 0.0
2016-Apr-22 04:32N 34°38' E 135°25'0 0.0
2016-Apr-22 03:32N 34°38' E 135°25'0 0.0
2016-Apr-22 02:32N 34°38' E 135°25'0 0.0
2016-Apr-22 01:32N 34°38' E 135°25'0 0.0
2016-Apr-22 00:32N 34°38' E 135°25'0 0.0
2016-Apr-21 23:32N 34°38' E 135°25'0 0.0
2016-Apr-21 22:14N 34°38' E 135°25'0 0.0
2016-Apr-21 21:26N 34°38' E 135°25'0 0.0
2016-Apr-21 20:32N 34°38' E 135°25'0 0.0
2016-Apr-21 19:26N 34°38' E 135°25'0 0.0
2016-Apr-21 18:32N 34°38' E 135°25'0 0.0
2016-Apr-21 17:32N 34°38' E 135°25'0 0.0
2016-Apr-21 16:32N 34°38' E 135°25'0 0.0
2016-Apr-21 15:32N 34°38' E 135°25'0 0.0
2016-Apr-21 14:26N 34°38' E 135°25'0 0.0
2016-Apr-21 13:26N 34°38' E 135°25'0 0.0
2016-Apr-21 12:32N 34°38' E 135°25'0 0.0
2016-Apr-21 11:32N 34°38' E 135°25'0 0.0
2016-Apr-21 10:32N 34°38' E 135°25'0 0.0
2016-Apr-21 09:32N 34°38' E 135°25'0 0.0
2016-Apr-21 08:32N 34°38' E 135°25'0 0.0
2016-Apr-21 07:32N 34°38' E 135°25'0 0.0
2016-Apr-21 06:32N 34°38' E 135°25'0 0.0
2016-Apr-21 05:32N 34°38' E 135°25'0 0.0
2016-Apr-21 04:32N 34°38' E 135°25'0 0.0
2016-Apr-21 03:32N 34°38' E 135°25'0 0.0
2016-Apr-21 02:26N 34°38' E 135°25'0 0.0
2016-Apr-21 01:26N 34°38' E 135°25'0 0.0
2016-Apr-21 00:32N 34°38' E 135°25'0 0.0
2016-Apr-20 23:26N 34°38' E 135°25'0 0.0
2016-Apr-20 22:31N 34°38' E 135°25'0 0.0
2016-Apr-20 21:31N 34°38' E 135°25'0 0.0
2016-Apr-20 20:19N 34°38' E 135°25'0 0.0
2016-Apr-20 19:25N 34°38' E 135°25'0 0.0
2016-Apr-20 18:31N 34°38' E 135°25'0 0.0
2016-Apr-20 17:31N 34°38' E 135°25'0 0.0
2016-Apr-20 16:31N 34°38' E 135°25'0 0.0
2016-Apr-20 15:31N 34°38' E 135°25'0 0.0
2016-Apr-20 14:19N 34°38' E 135°25'0 0.0
2016-Apr-20 13:31N 34°38' E 135°25'0 0.0
2016-Apr-20 12:31N 34°38' E 135°25'0 0.0
2016-Apr-20 11:31N 34°38' E 135°25'0 0.0
2016-Apr-20 10:31N 34°38' E 135°25'0 0.0
2016-Apr-20 09:31N 34°38' E 135°25'0 0.0
2016-Apr-20 08:31N 34°38' E 135°25'0 0.0
2016-Apr-20 07:31N 34°38' E 135°25'0 0.0
2016-Apr-20 06:25N 34°38' E 135°25'0 0.0
2016-Apr-20 05:19N 34°38' E 135°25'0 0.0
2016-Apr-20 04:25N 34°38' E 135°25'0 0.0
2016-Apr-20 03:31N 34°38' E 135°25'0 0.0
2016-Apr-20 02:31N 34°38' E 135°25'0 0.0
2016-Apr-20 01:19N 34°38' E 135°25'0 0.0
2016-Apr-20 00:31N 34°38' E 135°25'0 0.0
2016-Apr-19 23:31N 34°38' E 135°25'0 0.0
2016-Apr-19 22:31N 34°38' E 135°25'2 1.8
2016-Apr-19 21:33N 34°37' E 135°23'0 0.1
2016-Apr-19 18:32N 34°37' E 135°23'8 8.4
2016-Apr-19 17:33N 34°35' E 135°14'1312.7
2016-Apr-19 16:33N 34°37' E 134°58'  

Dump ship's entire track history